Flight Track Log - Related Links

Times and Time Zones

All times are in EDT time to prevent confusion due to time zone crossing. See the N703RM flight status page for this flight to view local times or setup timezone preferences in your user account.

Time Position Orientation Groundspeed Altitude Reporting Facility
EDT Latitude Longitude Course Direction KTS MPH feet Rate Location/Type
Fri 01:13:46 PM 38.6833 -77.5000 32° Northeast 168 193 1,600  Level Potomac TRACON
Fri 01:14:46 PM 38.6833 -77.5667 270° West 202 232 2,400 700 Climbing Potomac TRACON
Fri 01:15:46 PM 38.6833 -77.6333 270° West 217 250 3,000 286 Climbing Potomac TRACON
Fri 01:16:52 PM 38.7167 -77.7167 297° West 235 270 3,000 476 Level Potomac TRACON
Fri 01:17:52 PM 38.7833 -77.7333 349° North 209 241 4,000 600 Climbing Potomac TRACON
Fri 01:18:52 PM 38.8333 -77.7500 345° North 234 269 4,200 1,140 Climbing Potomac TRACON
Fri 01:19:00 PM 39.0299 -77.2729 32° Northeast  Level FlightAware Approximate
Fri 01:19:53 PM 38.9000 -77.7667 349° North 186 214 6,300  Level Potomac TRACON
Fri 01:20:59 PM 38.9500 -77.7667 360° North 224 258 7,000 333 Climbing Potomac TRACON
Fri 01:21:59 PM 39.0000 -77.7000 46° Northeast 239 275 7,000  Level Potomac TRACON
Fri 01:22:59 PM 39.0333 -77.6333 57° Northeast 248 285 7,000 50 Level Potomac TRACON
Fri 01:24:00 PM 39.0833 -77.5500 52° Northeast 247 284 7,100 496 Climbing Potomac TRACON
Fri 01:25:00 PM 39.1167 -77.4833 57° Northeast 226 260 8,000 500 Climbing Potomac TRACON
Fri 01:26:00 PM 39.1500 -77.4167 57° Northeast 245 282 8,100 450 Climbing Potomac TRACON
Fri 01:27:00 PM 39.1833 -77.3500 57° Northeast 231 266 8,900 474 Climbing Potomac TRACON
Fri 01:27:54 PM 39.2167 -77.2833 57° Northeast 243 280 9,000 53 Climbing Potomac TRACON
Fri 01:28:54 PM 39.2500 -77.2000 63° Northeast 254 292 9,000  Level Potomac TRACON
Fri 01:30:01 PM 39.3000 -77.1167 52° Northeast 258 297 9,000  Level Potomac TRACON
Fri 01:31:01 PM 39.3333 -77.0333 63° Northeast 257 296 9,000  Level Potomac TRACON
Fri 01:32:01 PM 39.3167 -76.9500 104° East 256 295 9,000  Level Potomac TRACON
Fri 01:33:02 PM 39.3000 -76.8667 104° East 257 296 9,000  Level Potomac TRACON
Fri 01:34:02 PM 39.2833 -76.7667 102° East 257 296 9,000  Level Potomac TRACON
Fri 01:35:08 PM 39.2500 -76.6833 117° Southeast 268 308 9,000  Level Potomac TRACON
Fri 01:36:09 PM 39.2333 -76.5833 102° East 268 308 9,000  Level Potomac TRACON
Fri 01:37:09 PM 39.2167 -76.5000 104° East 257 296 9,000  Level Potomac TRACON
Fri 01:38:16 PM 39.1833 -76.4000 113° Southeast 258 297 9,000  Level Potomac TRACON
Fri 01:39:16 PM 39.1667 -76.3167 104° East 259 298 9,000 -694 Level Potomac TRACON
Fri 01:40:17 PM 39.2000 -76.2333 63° Northeast 279 321 7,600 -1,370 Descending Potomac TRACON
Fri 01:41:23 PM 39.2500 -76.1500 52° Northeast 265 305 6,100 -945 Descending Potomac TRACON
Fri 01:43:02 PM 39.3333 -76.0500 43° Northeast 244 281 5,000 -415 Descending Philadelphia TRACON
Fri 01:44:02 PM 39.3833 -75.9833 46° Northeast 236 272 5,000  Level Philadelphia TRACON
Fri 01:45:01 PM 39.4333 -75.9333 38° Northeast 236 272 5,000  Level Philadelphia TRACON
Fri 01:46:14 PM 39.4833 -75.8667 46° Northeast 237 273 5,000  Level Philadelphia TRACON
Fri 01:47:08 PM 39.5333 -75.8333 27° Northeast 207 238 5,000 -56 Level Philadelphia TRACON
Fri 01:48:02 PM 39.5833 -75.8167 14° North 195 224 4,900 -903 Descending Philadelphia TRACON
Fri 01:49:01 PM 39.6500 -75.8000 11° North 224 258 3,300 -1,286 Descending Philadelphia TRACON
Fri 01:50:08 PM 39.6833 -75.7500 49° Northeast 182 209 2,200 -722 Descending Philadelphia TRACON
Fri 01:51:14 PM 39.7167 -75.7167 38° Northeast 153 176 1,700 -476 Descending Philadelphia TRACON
Fri 01:52:14 PM 39.7167 -75.6667 90° East 131 151 1,200 -500 Descending Philadelphia TRACON

Login

Don't have an account? Register now (free) for customized features, flight alerts, and more!